Terminal Aerodrome Forecast
Issued by NWS Blacksburg, VA

Current Version | Previous Version | Graphics & Text | Print | Product List | Glossary On
Versions: 1 2 3 4 5 6 7 8 9 10 11 12 13 14 15 16 17 18 19 20 21 22 23 24 25 26 27 28 29 30 31 32
184
FTUS41 KRNK 222338
TAFBLF
TAF
KBLF 222338Z 2300/2324 VRB03KT 6SM -SHRA OVC040
     FM230400 VRB03KT P6SM VCSH SCT025
      TEMPO 2304/2306 4SM SHRA BKN020
     FM230600 26004KT 2SM BR SCT010
     FM231600 33005KT P6SM BKN035=

USA.gov is the U.S. government's official web portal to all federal, state and local government web resources and services.